sensor_id;sensor_type;location;lat;lon;timestamp;pressure;altitude;pressure_sealevel;temperature;humidity
51530;BME280;37613;51.788;21.582;2024-01-16T00:00:00;97966.21;;;-2.53;84.61
51530;BME280;37613;51.788;21.582;2024-01-16T00:04:03;97967.05;;;-2.53;84.96
51530;BME280;37613;51.788;21.582;2024-01-16T00:08:05;97981.58;;;-2.55;84.74
51530;BME280;37613;51.788;21.582;2024-01-16T00:12:07;97990.34;;;-2.58;83.90
51530;BME280;37613;51.788;21.582;2024-01-16T00:16:09;97995.42;;;-2.59;84.27
51530;BME280;37613;51.788;21.582;2024-01-16T00:20:12;98006.64;;;-2.59;84.07
51530;BME280;37613;51.788;21.582;2024-01-16T00:24:14;98017.93;;;-2.59;83.56
51530;BME280;37613;51.788;21.582;2024-01-16T00:28:16;98029.98;;;-2.60;83.85
51530;BME280;37613;51.788;21.582;2024-01-16T00:32:21;98036.39;;;-2.62;82.50
51530;BME280;37613;51.788;21.582;2024-01-16T00:36:23;98038.36;;;-2.64;82.61
51530;BME280;37613;51.788;21.582;2024-01-16T00:40:25;98040.64;;;-2.66;82.63
51530;BME280;37613;51.788;21.582;2024-01-16T00:44:27;98044.30;;;-2.68;81.83
51530;BME280;37613;51.788;21.582;2024-01-16T00:48:29;98061.45;;;-2.70;81.43
51530;BME280;37613;51.788;21.582;2024-01-16T00:52:31;98069.30;;;-2.72;80.91
51530;BME280;37613;51.788;21.582;2024-01-16T00:56:35;98075.73;;;-2.74;81.07
51530;BME280;37613;51.788;21.582;2024-01-16T01:00:37;98082.41;;;-2.78;80.71
51530;BME280;37613;51.788;21.582;2024-01-16T01:04:39;98088.23;;;-2.81;80.03
51530;BME280;37613;51.788;21.582;2024-01-16T01:08:43;98088.35;;;-2.83;79.24
51530;BME280;37613;51.788;21.582;2024-01-16T01:12:45;98095.16;;;-2.83;78.79
51530;BME280;37613;51.788;21.582;2024-01-16T01:16:47;98099.96;;;-2.83;79.43
51530;BME280;37613;51.788;21.582;2024-01-16T01:20:49;98096.63;;;-2.83;79.29
51530;BME280;37613;51.788;21.582;2024-01-16T01:24:51;98101.02;;;-2.84;79.24
51530;BME280;37613;51.788;21.582;2024-01-16T01:28:53;98106.10;;;-2.85;79.33
51530;BME280;37613;51.788;21.582;2024-01-16T01:32:55;98110.30;;;-2.84;79.00
51530;BME280;37613;51.788;21.582;2024-01-16T01:36:57;98115.45;;;-2.85;78.49
51530;BME280;37613;51.788;21.582;2024-01-16T01:40:59;98126.27;;;-2.86;78.32
51530;BME280;37613;51.788;21.582;2024-01-16T01:45:02;98136.55;;;-2.86;78.79
51530;BME280;37613;51.788;21.582;2024-01-16T01:49:04;98145.21;;;-2.86;78.52
51530;BME280;37613;51.788;21.582;2024-01-16T01:53:06;98153.14;;;-2.88;77.96
51530;BME280;37613;51.788;21.582;2024-01-16T01:57:08;98173.76;;;-2.89;77.78
51530;BME280;37613;51.788;21.582;2024-01-16T02:01:13;98187.85;;;-2.88;78.24
51530;BME280;37613;51.788;21.582;2024-01-16T02:05:16;98199.73;;;-2.89;78.40
51530;BME280;37613;51.788;21.582;2024-01-16T02:09:19;98211.16;;;-2.89;79.01
51530;BME280;37613;51.788;21.582;2024-01-16T02:13:22;98221.67;;;-2.90;78.51
51530;BME280;37613;51.788;21.582;2024-01-16T02:17:25;98228.59;;;-2.92;77.56
51530;BME280;37613;51.788;21.582;2024-01-16T02:21:28;98233.75;;;-2.93;78.25
51530;BME280;37613;51.788;21.582;2024-01-16T02:25:34;98236.20;;;-2.94;78.22
51530;BME280;37613;51.788;21.582;2024-01-16T02:29:41;98238.52;;;-2.97;77.59
51530;BME280;37613;51.788;21.582;2024-01-16T02:33:44;98250.72;;;-2.97;77.77
51530;BME280;37613;51.788;21.582;2024-01-16T02:37:46;98259.20;;;-2.99;77.68
51530;BME280;37613;51.788;21.582;2024-01-16T02:41:48;98258.22;;;-3.02;76.37
51530;BME280;37613;51.788;21.582;2024-01-16T02:45:50;98264.86;;;-3.02;76.56
51530;BME280;37613;51.788;21.582;2024-01-16T02:49:53;98275.55;;;-3.04;76.28
51530;BME280;37613;51.788;21.582;2024-01-16T02:53:55;98279.08;;;-3.05;77.24
51530;BME280;37613;51.788;21.582;2024-01-16T02:57:57;98287.41;;;-3.10;76.04
51530;BME280;37613;51.788;21.582;2024-01-16T03:02:00;98296.17;;;-3.12;75.95
51530;BME280;37613;51.788;21.582;2024-01-16T03:06:02;98304.45;;;-3.12;76.85
51530;BME280;37613;51.788;21.582;2024-01-16T03:10:08;98303.71;;;-3.13;77.05
51530;BME280;37613;51.788;21.582;2024-01-16T03:14:10;98303.20;;;-3.16;76.29
51530;BME280;37613;51.788;21.582;2024-01-16T03:18:12;98306.30;;;-3.16;76.61
51530;BME280;37613;51.788;21.582;2024-01-16T03:22:14;98311.16;;;-3.16;76.82
51530;BME280;37613;51.788;21.582;2024-01-16T03:26:16;98319.99;;;-3.18;76.84
51530;BME280;37613;51.788;21.582;2024-01-16T03:30:18;98335.23;;;-3.20;76.94
51530;BME280;37613;51.788;21.582;2024-01-16T03:34:20;98337.96;;;-3.23;76.77
51530;BME280;37613;51.788;21.582;2024-01-16T03:38:22;98344.64;;;-3.25;76.84
51530;BME280;37613;51.788;21.582;2024-01-16T03:42:24;98348.27;;;-3.25;77.11
51530;BME280;37613;51.788;21.582;2024-01-16T03:46:26;98360.21;;;-3.26;77.52
51530;BME280;37613;51.788;21.582;2024-01-16T03:50:28;98366.66;;;-3.27;77.37
51530;BME280;37613;51.788;21.582;2024-01-16T03:54:31;98373.52;;;-3.28;77.50
51530;BME280;37613;51.788;21.582;2024-01-16T03:58:33;98378.36;;;-3.33;76.74
51530;BME280;37613;51.788;21.582;2024-01-16T04:02:37;98384.34;;;-3.34;77.23
51530;BME280;37613;51.788;21.582;2024-01-16T04:06:39;98390.24;;;-3.36;77.75
51530;BME280;37613;51.788;21.582;2024-01-16T04:10:41;98395.52;;;-3.39;77.68
51530;BME280;37613;51.788;21.582;2024-01-16T04:14:43;98405.00;;;-3.42;77.68
51530;BME280;37613;51.788;21.582;2024-01-16T04:18:46;98413.59;;;-3.44;77.87
51530;BME280;37613;51.788;21.582;2024-01-16T04:22:48;98425.04;;;-3.49;77.20
51530;BME280;37613;51.788;21.582;2024-01-16T04:26:50;98427.73;;;-3.53;77.47
51530;BME280;37613;51.788;21.582;2024-01-16T04:30:52;98430.85;;;-3.58;77.54
51530;BME280;37613;51.788;21.582;2024-01-16T04:34:54;98434.52;;;-3.62;77.45
51530;BME280;37613;51.788;21.582;2024-01-16T04:38:56;98432.71;;;-3.69;77.63
51530;BME280;37613;51.788;21.582;2024-01-16T04:42:59;98433.70;;;-3.77;77.78
51530;BME280;37613;51.788;21.582;2024-01-16T04:47:01;98437.87;;;-3.88;77.90
51530;BME280;37613;51.788;21.582;2024-01-16T04:51:03;98448.21;;;-3.99;77.75
51530;BME280;37613;51.788;21.582;2024-01-16T04:55:06;98455.13;;;-4.08;77.94
51530;BME280;37613;51.788;21.582;2024-01-16T04:59:09;98458.54;;;-4.15;78.01
51530;BME280;37613;51.788;21.582;2024-01-16T05:03:11;98456.16;;;-4.22;78.08
51530;BME280;37613;51.788;21.582;2024-01-16T05:07:13;98453.24;;;-4.32;78.21
51530;BME280;37613;51.788;21.582;2024-01-16T05:11:15;98450.20;;;-4.43;78.42
51530;BME280;37613;51.788;21.582;2024-01-16T05:15:17;98459.77;;;-4.53;78.47
51530;BME280;37613;51.788;21.582;2024-01-16T05:19:19;98467.47;;;-4.63;78.50
51530;BME280;37613;51.788;21.582;2024-01-16T05:23:21;98468.61;;;-4.73;78.69
51530;BME280;37613;51.788;21.582;2024-01-16T05:27:23;98475.86;;;-4.80;78.72
51530;BME280;37613;51.788;21.582;2024-01-16T05:31:25;98476.28;;;-4.86;78.89
51530;BME280;37613;51.788;21.582;2024-01-16T05:35:27;98483.23;;;-4.91;79.07
51530;BME280;37613;51.788;21.582;2024-01-16T05:39:29;98494.33;;;-4.95;79.13
51530;BME280;37613;51.788;21.582;2024-01-16T05:43:31;98501.50;;;-5.01;79.46
51530;BME280;37613;51.788;21.582;2024-01-16T05:47:33;98506.69;;;-5.08;79.41
51530;BME280;37613;51.788;21.582;2024-01-16T05:51:35;98511.00;;;-5.12;79.55
51530;BME280;37613;51.788;21.582;2024-01-16T05:55:38;98516.21;;;-5.13;79.70
51530;BME280;37613;51.788;21.582;2024-01-16T05:59:40;98521.73;;;-5.14;79.91
51530;BME280;37613;51.788;21.582;2024-01-16T06:03:42;98531.57;;;-5.14;80.03
51530;BME280;37613;51.788;21.582;2024-01-16T06:07:47;98550.98;;;-5.13;80.47
51530;BME280;37613;51.788;21.582;2024-01-16T06:11:48;98564.92;;;-5.11;80.71
51530;BME280;37613;51.788;21.582;2024-01-16T06:15:50;98573.54;;;-5.09;80.72
51530;BME280;37613;51.788;21.582;2024-01-16T06:19:52;98587.67;;;-5.08;80.82
51530;BME280;37613;51.788;21.582;2024-01-16T06:23:54;98595.35;;;-5.09;80.96
51530;BME280;37613;51.788;21.582;2024-01-16T06:27:56;98605.74;;;-5.09;80.96
51530;BME280;37613;51.788;21.582;2024-01-16T06:31:58;98608.86;;;-5.10;81.00
51530;BME280;37613;51.788;21.582;2024-01-16T06:36:04;98620.77;;;-5.14;80.92
51530;BME280;37613;51.788;21.582;2024-01-16T06:40:06;98625.80;;;-5.17;80.99
51530;BME280;37613;51.788;21.582;2024-01-16T06:44:08;98628.24;;;-5.20;81.01
51530;BME280;37613;51.788;21.582;2024-01-16T06:48:10;98629.54;;;-5.22;81.05
51530;BME280;37613;51.788;21.582;2024-01-16T06:52:12;98635.98;;;-5.22;81.06
51530;BME280;37613;51.788;21.582;2024-01-16T06:56:14;98649.04;;;-5.24;81.19
51530;BME280;37613;51.788;21.582;2024-01-16T07:00:16;98656.94;;;-5.27;81.21
51530;BME280;37613;51.788;21.582;2024-01-16T07:04:18;98656.50;;;-5.30;81.16
51530;BME280;37613;51.788;21.582;2024-01-16T07:08:20;98658.86;;;-5.31;81.13
51530;BME280;37613;51.788;21.582;2024-01-16T07:12:22;98667.70;;;-5.31;81.34
51530;BME280;37613;51.788;21.582;2024-01-16T07:16:24;98674.48;;;-5.32;81.45
51530;BME280;37613;51.788;21.582;2024-01-16T07:20:26;98692.67;;;-5.31;81.68
51530;BME280;37613;51.788;21.582;2024-01-16T07:24:28;98708.77;;;-5.27;81.79
51530;BME280;37613;51.788;21.582;2024-01-16T07:28:30;98709.20;;;-5.22;81.88
51530;BME280;37613;51.788;21.582;2024-01-16T07:32:32;98708.54;;;-5.17;81.87
51530;BME280;37613;51.788;21.582;2024-01-16T07:36:35;98717.09;;;-5.13;82.01
51530;BME280;37613;51.788;21.582;2024-01-16T07:40:37;98720.27;;;-5.09;82.15
51530;BME280;37613;51.788;21.582;2024-01-16T07:44:39;98731.23;;;-5.04;82.16
51530;BME280;37613;51.788;21.582;2024-01-16T07:48:40;98738.73;;;-4.99;82.21
51530;BME280;37613;51.788;21.582;2024-01-16T07:52:42;98747.51;;;-4.96;82.31
51530;BME280;37613;51.788;21.582;2024-01-16T07:56:44;98749.33;;;-4.94;82.25
51530;BME280;37613;51.788;21.582;2024-01-16T08:00:47;98753.80;;;-4.96;82.18
51530;BME280;37613;51.788;21.582;2024-01-16T08:04:49;98760.40;;;-4.99;82.32
51530;BME280;37613;51.788;21.582;2024-01-16T08:08:51;98771.12;;;-4.97;82.35
51530;BME280;37613;51.788;21.582;2024-01-16T08:12:53;98776.20;;;-4.93;82.44
51530;BME280;37613;51.788;21.582;2024-01-16T08:16:55;98779.14;;;-4.91;82.48
51530;BME280;37613;51.788;21.582;2024-01-16T08:20:57;98782.26;;;-4.92;82.34
51530;BME280;37613;51.788;21.582;2024-01-16T08:24:59;98784.49;;;-4.94;82.44
51530;BME280;37613;51.788;21.582;2024-01-16T08:29:01;98793.25;;;-4.99;81.88
51530;BME280;37613;51.788;21.582;2024-01-16T08:33:03;98794.55;;;-5.05;81.71
51530;BME280;37613;51.788;21.582;2024-01-16T08:37:05;98799.61;;;-5.01;81.83
51530;BME280;37613;51.788;21.582;2024-01-16T08:41:07;98805.89;;;-5.00;81.52
51530;BME280;37613;51.788;21.582;2024-01-16T08:45:10;98819.63;;;-4.94;81.75
51530;BME280;37613;51.788;21.582;2024-01-16T08:49:13;98824.56;;;-4.80;81.81
51530;BME280;37613;51.788;21.582;2024-01-16T08:53:15;98827.48;;;-4.66;81.10
51530;BME280;37613;51.788;21.582;2024-01-16T08:57:17;98832.86;;;-4.48;81.27
51530;BME280;37613;51.788;21.582;2024-01-16T09:01:19;98844.04;;;-4.34;81.04
51530;BME280;37613;51.788;21.582;2024-01-16T09:05:22;98851.50;;;-4.26;80.54
51530;BME280;37613;51.788;21.582;2024-01-16T09:09:27;98856.61;;;-4.15;80.55
51530;BME280;37613;51.788;21.582;2024-01-16T09:13:29;98853.01;;;-4.04;80.18
51530;BME280;37613;51.788;21.582;2024-01-16T09:17:31;98860.13;;;-3.90;81.18
51530;BME280;37613;51.788;21.582;2024-01-16T09:21:32;98860.77;;;-3.81;80.22
51530;BME280;37613;51.788;21.582;2024-01-16T09:25:35;98864.28;;;-3.85;79.12
51530;BME280;37613;51.788;21.582;2024-01-16T09:29:37;98863.99;;;-3.82;79.33
51530;BME280;37613;51.788;21.582;2024-01-16T09:33:39;98871.73;;;-3.81;79.42
51530;BME280;37613;51.788;21.582;2024-01-16T09:37:41;98877.34;;;-3.67;79.47
51530;BME280;37613;51.788;21.582;2024-01-16T09:41:44;98884.56;;;-3.74;78.12
51530;BME280;37613;51.788;21.582;2024-01-16T09:45:47;98885.11;;;-3.78;78.84
51530;BME280;37613;51.788;21.582;2024-01-16T09:49:50;98889.59;;;-3.78;77.85
51530;BME280;37613;51.788;21.582;2024-01-16T09:53:52;98893.75;;;-3.81;78.60
51530;BME280;37613;51.788;21.582;2024-01-16T09:57:54;98897.42;;;-3.69;77.64
51530;BME280;37613;51.788;21.582;2024-01-16T10:01:56;98902.33;;;-3.48;76.93
51530;BME280;37613;51.788;21.582;2024-01-16T10:06:02;98904.27;;;-3.32;76.99
51530;BME280;37613;51.788;21.582;2024-01-16T10:10:06;98902.81;;;-3.25;74.68
51530;BME280;37613;51.788;21.582;2024-01-16T10:14:08;98907.23;;;-3.18;75.47
51530;BME280;37613;51.788;21.582;2024-01-16T10:18:28;98911.80;;;-3.19;75.32
51530;BME280;37613;51.788;21.582;2024-01-16T10:22:34;98923.21;;;-3.09;76.91
51530;BME280;37613;51.788;21.582;2024-01-16T10:26:36;98930.94;;;-2.93;75.80
51530;BME280;37613;51.788;21.582;2024-01-16T10:30:37;98941.55;;;-2.89;74.84
51530;BME280;37613;51.788;21.582;2024-01-16T10:34:40;98943.80;;;-2.80;74.72
51530;BME280;37613;51.788;21.582;2024-01-16T10:38:44;98945.06;;;-2.67;72.69
51530;BME280;37613;51.788;21.582;2024-01-16T10:47:10;98961.34;;;-2.78;71.36
51530;BME280;37613;51.788;21.582;2024-01-16T10:51:15;98965.58;;;-2.86;68.97
51530;BME280;37613;51.788;21.582;2024-01-16T10:55:22;98978.55;;;-2.91;70.37
51530;BME280;37613;51.788;21.582;2024-01-16T10:59:25;98979.27;;;-2.98;70.14
51530;BME280;37613;51.788;21.582;2024-01-16T11:03:47;98987.21;;;-3.02;68.84
51530;BME280;37613;51.788;21.582;2024-01-16T11:07:54;98991.12;;;-3.13;67.92
51530;BME280;37613;51.788;21.582;2024-01-16T11:11:57;98993.70;;;-3.14;67.94
51530;BME280;37613;51.788;21.582;2024-01-16T11:16:02;98997.41;;;-3.21;68.12
51530;BME280;37613;51.788;21.582;2024-01-16T11:20:05;99003.40;;;-3.28;68.49
51530;BME280;37613;51.788;21.582;2024-01-16T11:24:12;99004.02;;;-3.39;68.75
51530;BME280;37613;51.788;21.582;2024-01-16T11:28:14;99006.32;;;-3.52;68.93
51530;BME280;37613;51.788;21.582;2024-01-16T11:32:37;99004.17;;;-3.62;68.86
51530;BME280;37613;51.788;21.582;2024-01-16T11:40:48;99015.29;;;-3.40;70.45
51530;BME280;37613;51.788;21.582;2024-01-16T11:44:50;99012.25;;;-3.21;70.77
51530;BME280;37613;51.788;21.582;2024-01-16T11:49:10;99015.28;;;-3.18;70.28
51530;BME280;37613;51.788;21.582;2024-01-16T11:53:38;99019.59;;;-3.27;70.42
51530;BME280;37613;51.788;21.582;2024-01-16T11:58:09;99024.70;;;-3.25;69.58
51530;BME280;37613;51.788;21.582;2024-01-16T12:02:18;99025.23;;;-3.14;69.54
